Crescent, AR

3:26 PM CST on December 08, 2016 (GMT -0600)
Riley Farms | | Change Station

Elev 584 ft 35.28 °N, 94.37 °W | Updated 6 seconds ago

Clear
Clear
38.2 °F
Feels Like 35 °F
N
4.0
Wind Variable Wind from WNW
Gusts 10.0 mph

Today
High -- | Low -- °F
--% Chance of Precip.
Yesterday
High -- | Low -- °F
Precip. -- in
Pressure 30.61 in
Visibility 10.0 miles
Clouds Clear
Windchill 35 °F
Dew Point 15 °F
Humidity 39%
Rainfall 0.00 in
Snow Depth Not available.
7:14 AM 5:05 PM
Waxing Gibbous, 67% visible
METAR KFSM 082053Z 33010KT 10SM CLR 04/M14 A3060 RMK AO2 SLP365 T00391139 56012
Pressure 30.61 in
Visibility 10.0 miles
Clouds Clear
Windchill 35 °F
Dew Point 15 °F
Humidity 39%
Rainfall 0.00 in
Snow Depth Not available.
7:14 AM 5:05 PM
Waxing Gibbous, 67% visible
METAR KFSM 082053Z 33010KT 10SM CLR 04/M14 A3060 RMK AO2 SLP365 T00391139 56012

10-Day Weather Forecast

Almanac

Astronomy

Dec. 08, 2016 Rise Set
Actual Time
Civil Twilight
Nautical Twilight
Astronomical Twilight
Moon
Length of Visible Light
Length of Day
Tomorrow will be .
, % of the Moon is Illuminated

Today's Extremes

State Highs State Lows

Community

WunderPhotos

Upload Photos

1,956,277 photos uploaded!

WunderBlog® & News

Nearby

Air Quality

  Air Quality AQ Index Pollutant
Not available.

Snow Depth

Station Depth Elevation

Earthquake Activity

City Distance Mag. Time & Date
Minimum magnitude displayed is 2.5.

Coastal Water Temperatures

Place Temperature

Stations

Nearby Weather Stations

Station Location Temp. Windchill Dew Point Humidity Wind Precip. Elev Updated Type
                   

Watches & Warnings

There are currently no watches in effect.